sensor_id;sensor_type;location;lat;lon;timestamp;temperature;humidity
3944;DHT22;1986;52.546;13.428;2022-10-19T00:00:24;12.00;99.90
3944;DHT22;1986;52.546;13.428;2022-10-19T00:02:52;12.00;99.90
3944;DHT22;1986;52.546;13.428;2022-10-19T00:05:19;12.10;99.90
3944;DHT22;1986;52.546;13.428;2022-10-19T00:07:47;12.10;99.90
3944;DHT22;1986;52.546;13.428;2022-10-19T00:10:14;12.10;99.90
3944;DHT22;1986;52.546;13.428;2022-10-19T00:12:42;12.10;99.90
3944;DHT22;1986;52.546;13.428;2022-10-19T00:15:10;12.10;99.90
3944;DHT22;1986;52.546;13.428;2022-10-19T00:17:37;12.10;99.90
3944;DHT22;1986;52.546;13.428;2022-10-19T00:20:06;12.10;99.90
3944;DHT22;1986;52.546;13.428;2022-10-19T00:22:33;12.10;99.90
3944;DHT22;1986;52.546;13.428;2022-10-19T00:25:03;12.10;99.90
3944;DHT22;1986;52.546;13.428;2022-10-19T00:27:30;12.20;99.90
3944;DHT22;1986;52.546;13.428;2022-10-19T00:29:59;12.20;99.90
3944;DHT22;1986;52.546;13.428;2022-10-19T00:32:27;12.10;99.90
3944;DHT22;1986;52.546;13.428;2022-10-19T00:34:54;12.10;99.90
3944;DHT22;1986;52.546;13.428;2022-10-19T00:37:21;12.10;99.90
3944;DHT22;1986;52.546;13.428;2022-10-19T00:39:48;12.10;99.90
3944;DHT22;1986;52.546;13.428;2022-10-19T00:42:15;12.10;99.90
3944;DHT22;1986;52.546;13.428;2022-10-19T00:45:01;12.20;99.90
3944;DHT22;1986;52.546;13.428;2022-10-19T00:47:31;12.20;99.90
3944;DHT22;1986;52.546;13.428;2022-10-19T00:49:58;12.20;99.90
3944;DHT22;1986;52.546;13.428;2022-10-19T00:52:25;12.20;99.90
3944;DHT22;1986;52.546;13.428;2022-10-19T00:54:55;12.20;99.90
3944;DHT22;1986;52.546;13.428;2022-10-19T00:57:22;12.20;99.90
3944;DHT22;1986;52.546;13.428;2022-10-19T00:59:51;12.20;99.90
3944;DHT22;1986;52.546;13.428;2022-10-19T01:02:18;12.10;99.90
3944;DHT22;1986;52.546;13.428;2022-10-19T01:04:48;12.10;99.90
3944;DHT22;1986;52.546;13.428;2022-10-19T01:07:17;12.10;99.90
3944;DHT22;1986;52.546;13.428;2022-10-19T01:09:44;12.10;99.90
3944;DHT22;1986;52.546;13.428;2022-10-19T01:12:18;12.10;99.90
3944;DHT22;1986;52.546;13.428;2022-10-19T01:14:59;12.10;99.90
3944;DHT22;1986;52.546;13.428;2022-10-19T01:17:37;12.20;99.90
3944;DHT22;1986;52.546;13.428;2022-10-19T01:20:32;12.20;99.90
3944;DHT22;1986;52.546;13.428;2022-10-19T01:26:09;12.20;99.90
3944;DHT22;1986;52.546;13.428;2022-10-19T01:28:45;12.30;99.90
3944;DHT22;1986;52.546;13.428;2022-10-19T01:31:22;12.30;99.90
3944;DHT22;1986;52.546;13.428;2022-10-19T01:33:56;12.30;99.90
3944;DHT22;1986;52.546;13.428;2022-10-19T01:36:33;12.30;99.90
3944;DHT22;1986;52.546;13.428;2022-10-19T01:39:08;12.30;99.90
3944;DHT22;1986;52.546;13.428;2022-10-19T01:41:43;12.20;99.90
3944;DHT22;1986;52.546;13.428;2022-10-19T01:44:15;12.30;99.90
3944;DHT22;1986;52.546;13.428;2022-10-19T01:46:48;12.30;99.90
3944;DHT22;1986;52.546;13.428;2022-10-19T01:49:23;12.30;99.90
3944;DHT22;1986;52.546;13.428;2022-10-19T01:51:56;12.30;99.90
3944;DHT22;1986;52.546;13.428;2022-10-19T01:54:25;12.30;99.90
3944;DHT22;1986;52.546;13.428;2022-10-19T01:56:57;12.40;99.90
3944;DHT22;1986;52.546;13.428;2022-10-19T01:59:25;12.30;99.90
3944;DHT22;1986;52.546;13.428;2022-10-19T02:01:54;12.40;99.90
3944;DHT22;1986;52.546;13.428;2022-10-19T02:04:25;12.40;99.90
3944;DHT22;1986;52.546;13.428;2022-10-19T02:06:53;12.40;99.90
3944;DHT22;1986;52.546;13.428;2022-10-19T02:09:21;12.40;99.90
3944;DHT22;1986;52.546;13.428;2022-10-19T02:11:52;12.40;99.90
3944;DHT22;1986;52.546;13.428;2022-10-19T02:14:25;12.40;99.90
3944;DHT22;1986;52.546;13.428;2022-10-19T02:16:59;12.30;99.90
3944;DHT22;1986;52.546;13.428;2022-10-19T02:19:27;12.30;99.90
3944;DHT22;1986;52.546;13.428;2022-10-19T02:21:55;12.30;99.90
3944;DHT22;1986;52.546;13.428;2022-10-19T02:24:22;12.30;99.90
3944;DHT22;1986;52.546;13.428;2022-10-19T02:26:51;12.20;99.90
3944;DHT22;1986;52.546;13.428;2022-10-19T02:29:19;12.20;99.90
3944;DHT22;1986;52.546;13.428;2022-10-19T02:31:46;12.10;99.90
3944;DHT22;1986;52.546;13.428;2022-10-19T02:34:15;12.10;99.90
3944;DHT22;1986;52.546;13.428;2022-10-19T02:36:42;12.10;99.90
3944;DHT22;1986;52.546;13.428;2022-10-19T02:39:10;12.10;99.90
3944;DHT22;1986;52.546;13.428;2022-10-19T02:41:39;12.10;99.90
3944;DHT22;1986;52.546;13.428;2022-10-19T02:44:12;12.10;99.90
3944;DHT22;1986;52.546;13.428;2022-10-19T02:46:44;12.10;99.90
3944;DHT22;1986;52.546;13.428;2022-10-19T02:49:17;12.00;99.90
3944;DHT22;1986;52.546;13.428;2022-10-19T02:51:57;12.00;99.90
3944;DHT22;1986;52.546;13.428;2022-10-19T02:54:25;12.00;99.90
3944;DHT22;1986;52.546;13.428;2022-10-19T02:56:53;12.00;99.90
3944;DHT22;1986;52.546;13.428;2022-10-19T02:59:20;11.90;99.90
3944;DHT22;1986;52.546;13.428;2022-10-19T03:01:47;12.00;99.90
3944;DHT22;1986;52.546;13.428;2022-10-19T03:04:16;12.00;99.90
3944;DHT22;1986;52.546;13.428;2022-10-19T03:06:42;11.90;99.90
3944;DHT22;1986;52.546;13.428;2022-10-19T03:09:09;11.90;99.90
3944;DHT22;1986;52.546;13.428;2022-10-19T03:11:36;11.90;99.90
3944;DHT22;1986;52.546;13.428;2022-10-19T03:14:03;11.90;99.90
3944;DHT22;1986;52.546;13.428;2022-10-19T03:16:30;11.90;99.90
3944;DHT22;1986;52.546;13.428;2022-10-19T03:18:57;11.90;99.90
3944;DHT22;1986;52.546;13.428;2022-10-19T03:21:25;11.90;99.90
3944;DHT22;1986;52.546;13.428;2022-10-19T03:23:52;11.90;99.90
3944;DHT22;1986;52.546;13.428;2022-10-19T03:26:21;11.80;99.90
3944;DHT22;1986;52.546;13.428;2022-10-19T03:28:48;11.90;99.90
3944;DHT22;1986;52.546;13.428;2022-10-19T03:31:15;11.90;99.90
3944;DHT22;1986;52.546;13.428;2022-10-19T03:33:42;11.90;99.90
3944;DHT22;1986;52.546;13.428;2022-10-19T03:36:20;11.90;99.90
3944;DHT22;1986;52.546;13.428;2022-10-19T03:38:50;11.80;99.90
3944;DHT22;1986;52.546;13.428;2022-10-19T03:41:17;11.80;99.90
3944;DHT22;1986;52.546;13.428;2022-10-19T03:43:44;11.80;99.90
3944;DHT22;1986;52.546;13.428;2022-10-19T03:46:13;11.70;99.90
3944;DHT22;1986;52.546;13.428;2022-10-19T03:48:41;11.70;99.90
3944;DHT22;1986;52.546;13.428;2022-10-19T03:51:10;11.70;99.90
3944;DHT22;1986;52.546;13.428;2022-10-19T03:53:38;11.70;99.90
3944;DHT22;1986;52.546;13.428;2022-10-19T03:56:19;11.70;99.90
3944;DHT22;1986;52.546;13.428;2022-10-19T03:58:49;11.70;99.90
3944;DHT22;1986;52.546;13.428;2022-10-19T04:01:18;11.80;99.90
3944;DHT22;1986;52.546;13.428;2022-10-19T04:03:46;11.80;99.90
3944;DHT22;1986;52.546;13.428;2022-10-19T04:06:15;11.80;99.90
3944;DHT22;1986;52.546;13.428;2022-10-19T04:08:43;11.80;99.90
3944;DHT22;1986;52.546;13.428;2022-10-19T04:11:13;11.70;99.90
3944;DHT22;1986;52.546;13.428;2022-10-19T04:13:40;11.70;99.90
3944;DHT22;1986;52.546;13.428;2022-10-19T04:16:09;11.70;99.90
3944;DHT22;1986;52.546;13.428;2022-10-19T04:18:39;11.80;99.90
3944;DHT22;1986;52.546;13.428;2022-10-19T04:21:06;11.70;99.90
3944;DHT22;1986;52.546;13.428;2022-10-19T04:23:35;11.70;99.90
3944;DHT22;1986;52.546;13.428;2022-10-19T04:26:04;11.70;99.90
3944;DHT22;1986;52.546;13.428;2022-10-19T04:28:33;11.60;99.90
3944;DHT22;1986;52.546;13.428;2022-10-19T04:31:01;11.60;99.90
3944;DHT22;1986;52.546;13.428;2022-10-19T04:33:27;11.70;99.90
3944;DHT22;1986;52.546;13.428;2022-10-19T04:35:57;11.70;99.90
3944;DHT22;1986;52.546;13.428;2022-10-19T04:38:24;11.70;99.90
3944;DHT22;1986;52.546;13.428;2022-10-19T04:40:51;11.70;99.90
3944;DHT22;1986;52.546;13.428;2022-10-19T04:43:18;11.70;99.90
3944;DHT22;1986;52.546;13.428;2022-10-19T04:45:46;11.70;99.90
3944;DHT22;1986;52.546;13.428;2022-10-19T04:48:14;11.70;99.90
3944;DHT22;1986;52.546;13.428;2022-10-19T04:50:40;11.70;99.90
3944;DHT22;1986;52.546;13.428;2022-10-19T04:53:07;11.70;99.90
3944;DHT22;1986;52.546;13.428;2022-10-19T04:55:39;11.70;99.90
3944;DHT22;1986;52.546;13.428;2022-10-19T04:58:06;11.70;99.90
3944;DHT22;1986;52.546;13.428;2022-10-19T05:00:34;11.70;99.90
3944;DHT22;1986;52.546;13.428;2022-10-19T05:03:04;11.70;99.90
3944;DHT22;1986;52.546;13.428;2022-10-19T05:05:31;11.70;99.90
3944;DHT22;1986;52.546;13.428;2022-10-19T05:07:59;11.70;99.90
3944;DHT22;1986;52.546;13.428;2022-10-19T05:10:26;11.80;99.90
3944;DHT22;1986;52.546;13.428;2022-10-19T05:12:52;11.70;99.90
3944;DHT22;1986;52.546;13.428;2022-10-19T05:15:19;11.80;99.90
3944;DHT22;1986;52.546;13.428;2022-10-19T05:17:46;11.80;99.90
3944;DHT22;1986;52.546;13.428;2022-10-19T05:20:15;11.70;99.90
3944;DHT22;1986;52.546;13.428;2022-10-19T05:22:41;11.60;99.90
3944;DHT22;1986;52.546;13.428;2022-10-19T05:25:09;11.50;99.90
3944;DHT22;1986;52.546;13.428;2022-10-19T05:27:40;11.30;99.90
3944;DHT22;1986;52.546;13.428;2022-10-19T05:30:13;11.20;99.90
3944;DHT22;1986;52.546;13.428;2022-10-19T05:32:39;11.10;99.90
3944;DHT22;1986;52.546;13.428;2022-10-19T05:35:07;11.00;99.90
3944;DHT22;1986;52.546;13.428;2022-10-19T05:37:35;11.00;99.90
3944;DHT22;1986;52.546;13.428;2022-10-19T05:40:02;10.90;99.90
3944;DHT22;1986;52.546;13.428;2022-10-19T05:42:29;10.90;99.90
3944;DHT22;1986;52.546;13.428;2022-10-19T05:44:56;11.00;99.90
3944;DHT22;1986;52.546;13.428;2022-10-19T05:47:23;10.90;99.90
3944;DHT22;1986;52.546;13.428;2022-10-19T05:49:49;11.10;99.90
3944;DHT22;1986;52.546;13.428;2022-10-19T05:52:16;11.10;99.90
3944;DHT22;1986;52.546;13.428;2022-10-19T05:54:44;11.10;99.90
3944;DHT22;1986;52.546;13.428;2022-10-19T05:57:11;11.10;99.90
3944;DHT22;1986;52.546;13.428;2022-10-19T05:59:38;11.10;99.90
3944;DHT22;1986;52.546;13.428;2022-10-19T06:02:05;11.20;99.90
3944;DHT22;1986;52.546;13.428;2022-10-19T06:04:32;11.20;99.90
3944;DHT22;1986;52.546;13.428;2022-10-19T06:07:00;11.20;99.90
3944;DHT22;1986;52.546;13.428;2022-10-19T06:09:27;11.20;99.90
3944;DHT22;1986;52.546;13.428;2022-10-19T06:11:55;11.30;99.90
3944;DHT22;1986;52.546;13.428;2022-10-19T06:14:22;11.30;99.90
3944;DHT22;1986;52.546;13.428;2022-10-19T06:16:49;11.30;99.90
3944;DHT22;1986;52.546;13.428;2022-10-19T06:19:16;11.40;99.90
3944;DHT22;1986;52.546;13.428;2022-10-19T06:21:43;11.40;99.90
3944;DHT22;1986;52.546;13.428;2022-10-19T06:24:11;11.40;99.90
3944;DHT22;1986;52.546;13.428;2022-10-19T06:26:38;11.40;99.90
3944;DHT22;1986;52.546;13.428;2022-10-19T06:29:06;11.50;99.90
3944;DHT22;1986;52.546;13.428;2022-10-19T06:31:34;11.50;99.90
3944;DHT22;1986;52.546;13.428;2022-10-19T06:34:02;11.50;99.90
3944;DHT22;1986;52.546;13.428;2022-10-19T06:36:30;11.50;99.90
3944;DHT22;1986;52.546;13.428;2022-10-19T06:38:58;11.60;99.90
3944;DHT22;1986;52.546;13.428;2022-10-19T06:41:26;11.60;99.90
3944;DHT22;1986;52.546;13.428;2022-10-19T06:43:54;11.60;99.90
3944;DHT22;1986;52.546;13.428;2022-10-19T06:46:24;11.70;99.90
3944;DHT22;1986;52.546;13.428;2022-10-19T06:48:52;11.70;99.90
3944;DHT22;1986;52.546;13.428;2022-10-19T06:51:19;11.70;99.90
3944;DHT22;1986;52.546;13.428;2022-10-19T06:53:46;11.70;99.90
3944;DHT22;1986;52.546;13.428;2022-10-19T06:56:13;11.60;99.90
3944;DHT22;1986;52.546;13.428;2022-10-19T06:58:40;11.60;99.90
3944;DHT22;1986;52.546;13.428;2022-10-19T07:01:07;11.60;99.90
3944;DHT22;1986;52.546;13.428;2022-10-19T07:03:36;11.70;99.90
3944;DHT22;1986;52.546;13.428;2022-10-19T07:06:05;11.70;99.90
3944;DHT22;1986;52.546;13.428;2022-10-19T07:08:33;11.60;99.90
3944;DHT22;1986;52.546;13.428;2022-10-19T07:11:02;11.70;99.90
3944;DHT22;1986;52.546;13.428;2022-10-19T07:13:29;11.70;99.90
3944;DHT22;1986;52.546;13.428;2022-10-19T07:15:57;11.80;99.90
3944;DHT22;1986;52.546;13.428;2022-10-19T07:18:24;11.80;99.90
3944;DHT22;1986;52.546;13.428;2022-10-19T07:20:57;11.90;99.90
3944;DHT22;1986;52.546;13.428;2022-10-19T07:23:26;11.90;99.90
3944;DHT22;1986;52.546;13.428;2022-10-19T07:25:54;12.00;99.90
3944;DHT22;1986;52.546;13.428;2022-10-19T07:28:37;12.10;99.90
3944;DHT22;1986;52.546;13.428;2022-10-19T07:31:06;12.20;99.90
3944;DHT22;1986;52.546;13.428;2022-10-19T07:33:34;12.10;99.90
3944;DHT22;1986;52.546;13.428;2022-10-19T07:36:04;12.00;99.90
3944;DHT22;1986;52.546;13.428;2022-10-19T07:38:31;12.10;99.90
3944;DHT22;1986;52.546;13.428;2022-10-19T07:41:03;12.00;99.90
3944;DHT22;1986;52.546;13.428;2022-10-19T07:43:31;12.10;99.90
3944;DHT22;1986;52.546;13.428;2022-10-19T07:46:00;12.20;99.90
3944;DHT22;1986;52.546;13.428;2022-10-19T07:48:27;12.20;99.90
3944;DHT22;1986;52.546;13.428;2022-10-19T07:50:54;12.20;99.90
3944;DHT22;1986;52.546;13.428;2022-10-19T07:53:22;12.30;99.90
3944;DHT22;1986;52.546;13.428;2022-10-19T07:55:49;12.30;99.90
3944;DHT22;1986;52.546;13.428;2022-10-19T07:58:16;12.30;99.90
3944;DHT22;1986;52.546;13.428;2022-10-19T08:00:43;12.30;99.90
3944;DHT22;1986;52.546;13.428;2022-10-19T08:03:10;12.30;99.90
3944;DHT22;1986;52.546;13.428;2022-10-19T08:05:37;12.40;99.90
3944;DHT22;1986;52.546;13.428;2022-10-19T08:08:04;12.30;99.90
3944;DHT22;1986;52.546;13.428;2022-10-19T08:10:32;12.30;99.90
3944;DHT22;1986;52.546;13.428;2022-10-19T08:12:59;12.30;99.90
3944;DHT22;1986;52.546;13.428;2022-10-19T08:15:28;12.40;99.90
3944;DHT22;1986;52.546;13.428;2022-10-19T08:17:58;12.30;99.90
3944;DHT22;1986;52.546;13.428;2022-10-19T08:20:25;12.40;99.90
3944;DHT22;1986;52.546;13.428;2022-10-19T08:22:52;12.40;99.90
3944;DHT22;1986;52.546;13.428;2022-10-19T08:25:19;12.40;99.90
3944;DHT22;1986;52.546;13.428;2022-10-19T08:27:47;12.30;99.90
3944;DHT22;1986;52.546;13.428;2022-10-19T08:30:13;12.50;99.90
3944;DHT22;1986;52.546;13.428;2022-10-19T08:32:40;12.50;99.90
3944;DHT22;1986;52.546;13.428;2022-10-19T08:35:07;12.50;99.90
3944;DHT22;1986;52.546;13.428;2022-10-19T08:37:34;12.60;99.90
3944;DHT22;1986;52.546;13.428;2022-10-19T08:40:01;12.70;99.90
3944;DHT22;1986;52.546;13.428;2022-10-19T08:42:35;12.60;99.90
3944;DHT22;1986;52.546;13.428;2022-10-19T08:45:24;12.60;99.90
3944;DHT22;1986;52.546;13.428;2022-10-19T08:47:58;12.80;99.90
3944;DHT22;1986;52.546;13.428;2022-10-19T08:50:28;12.80;99.90
3944;DHT22;1986;52.546;13.428;2022-10-19T08:53:00;12.90;99.90
3944;DHT22;1986;52.546;13.428;2022-10-19T08:55:37;13.00;99.90
3944;DHT22;1986;52.546;13.428;2022-10-19T08:58:19;13.30;99.90
3944;DHT22;1986;52.546;13.428;2022-10-19T09:00:51;13.40;99.90
3944;DHT22;1986;52.546;13.428;2022-10-19T09:03:24;13.50;99.90
3944;DHT22;1986;52.546;13.428;2022-10-19T09:05:56;13.40;99.90
3944;DHT22;1986;52.546;13.428;2022-10-19T09:08:23;13.50;99.90
3944;DHT22;1986;52.546;13.428;2022-10-19T09:10:51;13.60;99.90
3944;DHT22;1986;52.546;13.428;2022-10-19T09:13:26;13.80;99.90
3944;DHT22;1986;52.546;13.428;2022-10-19T09:15:56;13.90;99.90
3944;DHT22;1986;52.546;13.428;2022-10-19T09:18:25;13.90;99.90
3944;DHT22;1986;52.546;13.428;2022-10-19T09:20:58;13.80;99.90
3944;DHT22;1986;52.546;13.428;2022-10-19T09:23:29;13.80;99.90
3944;DHT22;1986;52.546;13.428;2022-10-19T09:25:57;13.80;99.90
3944;DHT22;1986;52.546;13.428;2022-10-19T09:28:40;13.90;99.90
3944;DHT22;1986;52.546;13.428;2022-10-19T09:31:15;14.00;99.90
3944;DHT22;1986;52.546;13.428;2022-10-19T09:33:51;13.90;99.90
3944;DHT22;1986;52.546;13.428;2022-10-19T09:36:21;13.90;99.90
3944;DHT22;1986;52.546;13.428;2022-10-19T09:38:49;14.10;99.90
3944;DHT22;1986;52.546;13.428;2022-10-19T09:41:18;14.10;99.90
3944;DHT22;1986;52.546;13.428;2022-10-19T09:43:48;14.10;99.90
3944;DHT22;1986;52.546;13.428;2022-10-19T09:46:28;14.20;99.90
3944;DHT22;1986;52.546;13.428;2022-10-19T09:48:58;14.20;99.90
3944;DHT22;1986;52.546;13.428;2022-10-19T09:51:39;14.20;99.90
3944;DHT22;1986;52.546;13.428;2022-10-19T09:54:22;14.10;99.90
3944;DHT22;1986;52.546;13.428;2022-10-19T09:56:52;14.20;99.90
3944;DHT22;1986;52.546;13.428;2022-10-19T09:59:20;14.20;99.90
3944;DHT22;1986;52.546;13.428;2022-10-19T10:01:59;14.20;99.90
3944;DHT22;1986;52.546;13.428;2022-10-19T10:04:26;14.10;99.90
3944;DHT22;1986;52.546;13.428;2022-10-19T10:06:58;13.90;99.90
3944;DHT22;1986;52.546;13.428;2022-10-19T10:09:26;13.70;99.90
3944;DHT22;1986;52.546;13.428;2022-10-19T10:11:56;13.80;99.90
3944;DHT22;1986;52.546;13.428;2022-10-19T10:14:26;13.70;99.90
3944;DHT22;1986;52.546;13.428;2022-10-19T10:16:56;13.70;99.90
3944;DHT22;1986;52.546;13.428;2022-10-19T10:19:26;13.70;99.90
3944;DHT22;1986;52.546;13.428;2022-10-19T10:21:55;13.70;99.90
3944;DHT22;1986;52.546;13.428;2022-10-19T10:24:27;13.80;99.90
3944;DHT22;1986;52.546;13.428;2022-10-19T10:26:55;13.80;99.90
3944;DHT22;1986;52.546;13.428;2022-10-19T10:29:25;14.00;99.90
3944;DHT22;1986;52.546;13.428;2022-10-19T10:31:54;14.00;99.90
3944;DHT22;1986;52.546;13.428;2022-10-19T10:34:31;14.20;99.90
3944;DHT22;1986;52.546;13.428;2022-10-19T10:36:58;14.40;99.90
3944;DHT22;1986;52.546;13.428;2022-10-19T10:39:27;14.50;99.90
3944;DHT22;1986;52.546;13.428;2022-10-19T10:41:58;14.50;99.90
3944;DHT22;1986;52.546;13.428;2022-10-19T10:44:27;14.50;99.90
3944;DHT22;1986;52.546;13.428;2022-10-19T10:46:57;14.50;99.90
3944;DHT22;1986;52.546;13.428;2022-10-19T10:49:28;14.50;99.90
3944;DHT22;1986;52.546;13.428;2022-10-19T10:51:56;14.60;99.90
3944;DHT22;1986;52.546;13.428;2022-10-19T10:54:25;14.70;99.90
3944;DHT22;1986;52.546;13.428;2022-10-19T10:57:02;14.70;99.90
3944;DHT22;1986;52.546;13.428;2022-10-19T10:59:32;14.50;99.90
3944;DHT22;1986;52.546;13.428;2022-10-19T11:02:02;14.70;99.90
3944;DHT22;1986;52.546;13.428;2022-10-19T11:04:35;15.00;99.90
3944;DHT22;1986;52.546;13.428;2022-10-19T11:07:13;14.10;99.90
3944;DHT22;1986;52.546;13.428;2022-10-19T11:09:45;14.50;99.90
3944;DHT22;1986;52.546;13.428;2022-10-19T11:12:18;14.70;99.90
3944;DHT22;1986;52.546;13.428;2022-10-19T11:14:49;14.70;99.90
3944;DHT22;1986;52.546;13.428;2022-10-19T11:17:20;14.50;99.90
3944;DHT22;1986;52.546;13.428;2022-10-19T11:19:49;14.30;99.90
3944;DHT22;1986;52.546;13.428;2022-10-19T11:22:21;14.30;99.90
3944;DHT22;1986;52.546;13.428;2022-10-19T11:25:04;14.60;99.90
3944;DHT22;1986;52.546;13.428;2022-10-19T11:27:42;14.80;99.90
3944;DHT22;1986;52.546;13.428;2022-10-19T11:30:15;15.00;99.90
3944;DHT22;1986;52.546;13.428;2022-10-19T11:32:50;15.10;99.90
3944;DHT22;1986;52.546;13.428;2022-10-19T11:35:43;15.00;99.90
3944;DHT22;1986;52.546;13.428;2022-10-19T11:41:10;14.90;99.90
3944;DHT22;1986;52.546;13.428;2022-10-19T11:43:45;14.80;99.90
3944;DHT22;1986;52.546;13.428;2022-10-19T11:46:21;14.80;99.90
3944;DHT22;1986;52.546;13.428;2022-10-19T11:49:03;14.70;99.90
3944;DHT22;1986;52.546;13.428;2022-10-19T11:51:39;14.40;99.90
3944;DHT22;1986;52.546;13.428;2022-10-19T11:54:26;14.40;99.90
3944;DHT22;1986;52.546;13.428;2022-10-19T11:56:59;14.50;99.90
3944;DHT22;1986;52.546;13.428;2022-10-19T11:59:39;14.90;99.90
3944;DHT22;1986;52.546;13.428;2022-10-19T12:02:23;15.10;99.90
3944;DHT22;1986;52.546;13.428;2022-10-19T12:04:55;15.00;99.90
3944;DHT22;1986;52.546;13.428;2022-10-19T12:07:46;15.00;99.90
3944;DHT22;1986;52.546;13.428;2022-10-19T12:10:23;14.70;99.90
3944;DHT22;1986;52.546;13.428;2022-10-19T12:12:57;14.80;99.90
3944;DHT22;1986;52.546;13.428;2022-10-19T12:15:32;14.60;99.90
3944;DHT22;1986;52.546;13.428;2022-10-19T12:18:05;14.50;99.90
3944;DHT22;1986;52.546;13.428;2022-10-19T12:20:36;14.50;99.90
3944;DHT22;1986;52.546;13.428;2022-10-19T12:23:17;14.50;99.90
3944;DHT22;1986;52.546;13.428;2022-10-19T12:25:47;14.40;99.90
3944;DHT22;1986;52.546;13.428;2022-10-19T12:28:23;14.50;99.90
3944;DHT22;1986;52.546;13.428;2022-10-19T12:30:52;14.40;99.90
3944;DHT22;1986;52.546;13.428;2022-10-19T12:33:22;14.40;99.90
3944;DHT22;1986;52.546;13.428;2022-10-19T12:36:05;14.40;99.90
3944;DHT22;1986;52.546;13.428;2022-10-19T12:38:49;14.50;99.90
3944;DHT22;1986;52.546;13.428;2022-10-19T12:41:21;14.30;99.90
3944;DHT22;1986;52.546;13.428;2022-10-19T12:44:05;14.40;99.90
3944;DHT22;1986;52.546;13.428;2022-10-19T12:46:40;14.40;99.90
3944;DHT22;1986;52.546;13.428;2022-10-19T12:49:44;14.50;99.90
3944;DHT22;1986;52.546;13.428;2022-10-19T12:52:12;14.70;99.90
3944;DHT22;1986;52.546;13.428;2022-10-19T12:54:41;14.90;99.90
3944;DHT22;1986;52.546;13.428;2022-10-19T12:57:22;15.10;99.90
3944;DHT22;1986;52.546;13.428;2022-10-19T13:00:03;15.10;99.90
3944;DHT22;1986;52.546;13.428;2022-10-19T13:02:33;14.90;99.90
3944;DHT22;1986;52.546;13.428;2022-10-19T13:05:01;15.00;99.90
3944;DHT22;1986;52.546;13.428;2022-10-19T13:07:32;14.90;99.90
3944;DHT22;1986;52.546;13.428;2022-10-19T13:10:04;14.90;99.90
3944;DHT22;1986;52.546;13.428;2022-10-19T13:12:45;14.90;99.90
3944;DHT22;1986;52.546;13.428;2022-10-19T13:22:01;14.70;99.90
3944;DHT22;1986;52.546;13.428;2022-10-19T13:25:19;14.50;99.90
3944;DHT22;1986;52.546;13.428;2022-10-19T13:27:48;14.30;99.90
3944;DHT22;1986;52.546;13.428;2022-10-19T13:33:44;14.10;99.90
3944;DHT22;1986;52.546;13.428;2022-10-19T13:36:12;14.10;99.90
3944;DHT22;1986;52.546;13.428;2022-10-19T13:38:40;14.10;99.90
3944;DHT22;1986;52.546;13.428;2022-10-19T13:41:14;14.20;99.90
3944;DHT22;1986;52.546;13.428;2022-10-19T13:44:02;14.20;99.90
3944;DHT22;1986;52.546;13.428;2022-10-19T13:46:45;14.20;99.90
3944;DHT22;1986;52.546;13.428;2022-10-19T13:52:28;14.10;99.90
3944;DHT22;1986;52.546;13.428;2022-10-19T13:58:10;14.00;99.90
3944;DHT22;1986;52.546;13.428;2022-10-19T14:00:56;14.10;99.90
3944;DHT22;1986;52.546;13.428;2022-10-19T14:03:35;14.20;99.90
3944;DHT22;1986;52.546;13.428;2022-10-19T14:06:19;14.20;99.90
3944;DHT22;1986;52.546;13.428;2022-10-19T14:09:09;14.20;99.90
3944;DHT22;1986;52.546;13.428;2022-10-19T14:11:42;14.20;99.90
3944;DHT22;1986;52.546;13.428;2022-10-19T14:14:16;14.20;99.90
3944;DHT22;1986;52.546;13.428;2022-10-19T14:16:49;14.10;99.90
3944;DHT22;1986;52.546;13.428;2022-10-19T14:19:25;14.00;99.90
3944;DHT22;1986;52.546;13.428;2022-10-19T14:21:54;13.90;99.90
3944;DHT22;1986;52.546;13.428;2022-10-19T14:24:29;14.00;99.90
3944;DHT22;1986;52.546;13.428;2022-10-19T14:27:03;14.10;99.90
3944;DHT22;1986;52.546;13.428;2022-10-19T14:29:42;14.10;99.90
3944;DHT22;1986;52.546;13.428;2022-10-19T14:32:11;14.20;99.90
3944;DHT22;1986;52.546;13.428;2022-10-19T14:34:39;14.20;99.90
3944;DHT22;1986;52.546;13.428;2022-10-19T14:37:12;14.30;99.90
3944;DHT22;1986;52.546;13.428;2022-10-19T14:39:40;14.50;99.90
3944;DHT22;1986;52.546;13.428;2022-10-19T14:42:09;14.40;99.90
3944;DHT22;1986;52.546;13.428;2022-10-19T14:44:42;14.60;99.90
3944;DHT22;1986;52.546;13.428;2022-10-19T14:47:17;14.60;99.90
3944;DHT22;1986;52.546;13.428;2022-10-19T14:49:47;14.70;99.90
3944;DHT22;1986;52.546;13.428;2022-10-19T14:52:18;14.60;99.90
3944;DHT22;1986;52.546;13.428;2022-10-19T14:54:48;14.50;99.90
3944;DHT22;1986;52.546;13.428;2022-10-19T14:57:21;14.50;99.90
3944;DHT22;1986;52.546;13.428;2022-10-19T14:59:52;14.40;99.90
3944;DHT22;1986;52.546;13.428;2022-10-19T15:02:24;14.20;99.90
3944;DHT22;1986;52.546;13.428;2022-10-19T15:04:54;13.80;99.90
3944;DHT22;1986;52.546;13.428;2022-10-19T15:07:25;13.60;99.90
3944;DHT22;1986;52.546;13.428;2022-10-19T15:09:57;13.50;99.90
3944;DHT22;1986;52.546;13.428;2022-10-19T15:12:28;13.40;99.90
3944;DHT22;1986;52.546;13.428;2022-10-19T15:15:06;13.30;99.90
3944;DHT22;1986;52.546;13.428;2022-10-19T15:17:48;13.30;99.90
3944;DHT22;1986;52.546;13.428;2022-10-19T15:20:24;13.30;99.90
3944;DHT22;1986;52.546;13.428;2022-10-19T15:22:52;13.20;99.90
3944;DHT22;1986;52.546;13.428;2022-10-19T15:25:26;13.10;99.90
3944;DHT22;1986;52.546;13.428;2022-10-19T15:27:53;13.10;99.90
3944;DHT22;1986;52.546;13.428;2022-10-19T15:30:25;13.00;99.90
3944;DHT22;1986;52.546;13.428;2022-10-19T15:33:08;13.00;99.90
3944;DHT22;1986;52.546;13.428;2022-10-19T15:35:37;13.00;99.90
3944;DHT22;1986;52.546;13.428;2022-10-19T15:38:06;13.00;99.90
3944;DHT22;1986;52.546;13.428;2022-10-19T15:40:37;12.90;99.90
3944;DHT22;1986;52.546;13.428;2022-10-19T15:43:31;12.90;99.90
3944;DHT22;1986;52.546;13.428;2022-10-19T15:46:02;12.80;99.90
3944;DHT22;1986;52.546;13.428;2022-10-19T15:48:43;12.80;99.90
3944;DHT22;1986;52.546;13.428;2022-10-19T15:51:33;12.80;99.90
3944;DHT22;1986;52.546;13.428;2022-10-19T15:54:03;12.80;99.90
3944;DHT22;1986;52.546;13.428;2022-10-19T15:56:36;12.70;99.90
3944;DHT22;1986;52.546;13.428;2022-10-19T15:59:05;12.60;99.90
3944;DHT22;1986;52.546;13.428;2022-10-19T16:01:35;12.60;99.90
3944;DHT22;1986;52.546;13.428;2022-10-19T16:04:04;12.60;99.90
3944;DHT22;1986;52.546;13.428;2022-10-19T16:06:35;12.50;99.90
3944;DHT22;1986;52.546;13.428;2022-10-19T16:09:04;12.50;99.90
3944;DHT22;1986;52.546;13.428;2022-10-19T16:11:32;12.50;99.90
3944;DHT22;1986;52.546;13.428;2022-10-19T16:14:01;12.40;99.90
3944;DHT22;1986;52.546;13.428;2022-10-19T16:16:29;12.30;99.90
3944;DHT22;1986;52.546;13.428;2022-10-19T16:18:59;12.40;99.90
3944;DHT22;1986;52.546;13.428;2022-10-19T16:21:29;12.40;99.90
3944;DHT22;1986;52.546;13.428;2022-10-19T16:23:57;12.40;99.90
3944;DHT22;1986;52.546;13.428;2022-10-19T16:26:24;12.30;99.90
3944;DHT22;1986;52.546;13.428;2022-10-19T16:28:53;12.30;99.90
3944;DHT22;1986;52.546;13.428;2022-10-19T16:31:21;12.20;99.90